Time;durP1;ratioP1;P1;durP2;ratioP2;P2;SDS_P1;SDS_P2;PMS_P1;PMS_P2;Temp;Humidity;BMP_temperature;BMP_pressure;BME280_temperature;BME280_humidity;BME280_pressure;Samples;Min_cycle;Max_cycle;Signal;HPM_P1;HPM_P2
2020/12/06 00:01:10;;;;;;;13.60;7.03;;;;;;;-1.10;78.50;101210.20;1727101;80;21248;-54
2020/12/06 00:03:37;;;;;;;16.57;7.00;;;;;;;-1.13;78.42;101214.55;1724366;81;21364;-54
2020/12/06 00:06:04;;;;;;;15.27;6.60;;;;;;;-1.16;78.32;101213.61;1721942;80;21235;-54
2020/12/06 00:08:32;;;;;;;17.17;6.60;;;;;;;-1.19;78.17;101215.28;1719741;81;21255;-54
2020/12/06 00:10:59;;;;;;;15.47;6.80;;;;;;;-1.23;78.04;101213.02;1722935;80;21219;-54
2020/12/06 00:13:27;;;;;;;12.53;6.40;;;;;;;-1.26;77.93;101206.34;1668953;84;21227;-54
2020/12/06 00:15:56;;;;;;;15.03;6.43;;;;;;;-1.30;77.76;101210.21;1729794;80;21636;-54
2020/12/06 00:18:24;;;;;;;15.80;5.97;;;;;;;-1.35;77.63;101216.69;1719771;80;21630;-55
2020/12/06 00:20:51;;;;;;;14.70;6.80;;;;;;;-1.38;77.67;101218.39;1723360;80;21196;-54
2020/12/06 00:23:20;;;;;;;13.50;6.30;;;;;;;-1.40;77.60;101226.70;1727577;80;21315;-54
2020/12/06 00:25:50;;;;;;;14.17;6.10;;;;;;;-1.42;77.45;101224.02;1724609;80;21109;-54
2020/12/06 00:28:17;;;;;;;12.30;5.70;;;;;;;-1.44;77.33;101219.11;1727948;80;21375;-54
2020/12/06 00:30:45;;;;;;;10.60;5.57;;;;;;;-1.47;77.25;101219.06;1721435;80;21243;-53
2020/12/06 00:33:12;;;;;;;14.70;6.60;;;;;;;-1.49;77.02;101225.16;1725476;80;21195;-54
2020/12/06 00:35:39;;;;;;;9.30;5.47;;;;;;;-1.54;76.96;101227.28;1667424;84;21459;-54
2020/12/06 00:38:06;;;;;;;12.40;5.03;;;;;;;-1.57;76.84;101223.23;1717016;80;21490;-54
2020/12/06 00:40:34;;;;;;;15.83;5.23;;;;;;;-1.60;76.66;101220.51;1725265;80;21389;-54
2020/12/06 00:43:01;;;;;;;11.60;4.33;;;;;;;-1.63;76.46;101220.88;1665818;84;21757;-53
2020/12/06 00:45:28;;;;;;;11.33;4.73;;;;;;;-1.68;76.34;101222.08;1730408;80;21194;-54
2020/12/06 00:47:56;;;;;;;12.83;5.43;;;;;;;-1.70;76.28;101211.89;1726336;80;22563;-54
2020/12/06 00:50:23;;;;;;;13.20;6.30;;;;;;;-1.75;76.16;101219.25;1727659;80;21104;-53
2020/12/06 00:52:51;;;;;;;13.40;5.77;;;;;;;-1.79;76.07;101216.98;1724825;80;21670;-54
2020/12/06 00:55:20;;;;;;;15.07;5.40;;;;;;;-1.81;76.00;101215.15;1724702;80;21230;-54
2020/12/06 00:57:47;;;;;;;10.77;4.77;;;;;;;-1.85;75.77;101212.84;1665705;83;21200;-53
2020/12/06 01:00:14;;;;;;;13.67;4.47;;;;;;;-1.88;75.73;101214.11;1726720;80;21614;-53
2020/12/06 01:02:41;;;;;;;11.63;4.53;;;;;;;-1.91;75.65;101214.02;1724095;80;21188;-53
2020/12/06 01:05:09;;;;;;;14.60;5.10;;;;;;;-1.94;75.56;101216.57;1703553;80;21230;-53
2020/12/06 01:07:39;;;;;;;12.07;4.03;;;;;;;-1.99;75.43;101207.23;1698934;82;21210;-53
2020/12/06 01:10:08;;;;;;;10.97;4.13;;;;;;;-2.03;75.42;101205.78;1698895;82;21204;-52
2020/12/06 01:12:36;;;;;;;8.10;4.03;;;;;;;-2.06;75.40;101205.73;1698401;82;21212;-53
2020/12/06 01:15:04;;;;;;;8.70;4.13;;;;;;;-2.12;75.41;101207.76;1697966;82;21221;-52
2020/12/06 01:17:32;;;;;;;13.87;5.40;;;;;;;-2.13;75.43;101206.00;1695927;82;22177;-52
2020/12/06 01:19:59;;;;;;;8.63;3.30;;;;;;;-2.15;75.31;101207.70;1699714;82;21883;-52
2020/12/06 01:22:27;;;;;;;12.87;5.10;;;;;;;-2.17;75.26;101215.09;1698363;82;21177;-52
2020/12/06 01:24:54;;;;;;;15.63;5.27;;;;;;;-2.24;75.28;101220.64;1698430;82;21236;-52
2020/12/06 01:27:22;;;;;;;15.90;5.33;;;;;;;-2.26;75.30;101219.70;1697168;82;21192;-52
2020/12/06 01:29:49;;;;;;;12.50;4.40;;;;;;;-2.27;75.17;101216.59;1698412;82;21823;-52
2020/12/06 01:32:16;;;;;;;13.20;5.23;;;;;;;-2.30;75.13;101221.35;1700837;82;21208;-52
2020/12/06 01:34:44;;;;;;;13.07;4.67;;;;;;;-2.29;75.03;101222.25;1699611;82;21589;-52
2020/12/06 01:37:11;;;;;;;12.60;5.00;;;;;;;-2.32;74.83;101226.14;1696587;82;21199;-52
2020/12/06 01:39:39;;;;;;;10.50;4.93;;;;;;;-2.34;74.63;101222.14;1697259;82;21196;-52
2020/12/06 01:42:06;;;;;;;15.73;4.00;;;;;;;-2.40;74.51;101219.77;1702788;82;22613;-52
2020/12/06 01:44:33;;;;;;;9.83;4.60;;;;;;;-2.45;74.32;101219.63;1693492;82;21208;-51
2020/12/06 01:47:01;;;;;;;11.50;4.27;;;;;;;-2.50;74.37;101220.36;1695239;82;21566;-52
2020/12/06 01:49:35;;;;;;;9.93;3.97;;;;;;;-2.53;74.43;101226.44;1652673;82;21208;-51
2020/12/06 01:52:04;;;;;;;6.97;3.83;;;;;;;-2.54;74.39;101232.55;1647380;85;21235;-52
2020/12/06 01:54:34;;;;;;;9.07;3.67;;;;;;;-2.56;74.29;101230.33;1643752;85;21685;-52
2020/12/06 01:57:03;;;;;;;9.30;3.37;;;;;;;-2.59;74.22;101234.18;1647276;85;21216;-51
2020/12/06 01:59:31;;;;;;;9.67;3.77;;;;;;;-2.62;74.06;101223.96;1665211;84;21136;-52
2020/12/06 02:02:03;;;;;;;8.60;3.77;;;;;;;-2.65;74.04;101228.75;1663501;84;22041;-52
2020/12/06 02:04:30;;;;;;;9.80;3.67;;;;;;;-2.70;73.89;101225.97;1671637;82;21657;-53
2020/12/06 02:06:58;;;;;;;9.00;3.97;;;;;;;-2.72;73.77;101227.66;1725499;80;21382;-53
2020/12/06 02:09:27;;;;;;;8.33;3.40;;;;;;;-2.76;73.70;101231.49;1729092;80;21825;-52
2020/12/06 02:11:55;;;;;;;5.17;2.80;;;;;;;-2.80;73.73;101226.54;1727458;80;21467;-53
2020/12/06 02:14:22;;;;;;;11.00;3.77;;;;;;;-2.82;73.70;101228.27;1668066;84;21219;-53
2020/12/06 02:16:55;;;;;;;10.03;3.40;;;;;;;-2.85;73.60;101226.84;1663284;83;21584;-53
2020/12/06 02:19:22;;;;;;;6.30;2.53;;;;;;;-2.87;73.53;101240.81;1723788;80;21269;-52
2020/12/06 02:21:49;;;;;;;9.20;3.83;;;;;;;-2.91;73.48;101242.48;1722871;80;21176;-52
2020/12/06 02:24:18;;;;;;;9.63;3.10;;;;;;;-2.94;73.54;101241.06;1668913;84;21562;-53
2020/12/06 02:26:47;;;;;;;7.20;3.20;;;;;;;-2.94;73.54;101241.48;1726010;80;21177;-52
2020/12/06 02:29:15;;;;;;;5.90;2.70;;;;;;;-2.95;73.54;101242.33;1720883;80;21176;-52
2020/12/06 02:31:43;;;;;;;11.43;3.33;;;;;;;-2.96;73.52;101241.86;1726156;80;21383;-53
2020/12/06 02:34:10;;;;;;;6.83;2.93;;;;;;;-2.98;73.44;101244.90;1719716;80;21207;-53
2020/12/06 02:36:38;;;;;;;9.90;3.00;;;;;;;-2.99;73.37;101247.06;1724232;80;21171;-52
2020/12/06 02:39:08;;;;;;;7.87;2.53;;;;;;;-3.03;73.25;101249.12;1723365;80;22076;-53
2020/12/06 02:41:44;;;;;;;8.53;3.30;;;;;;;-3.07;73.27;101242.46;1730266;80;21121;-53
2020/12/06 02:44:13;;;;;;;9.50;4.23;;;;;;;-3.09;73.24;101241.52;1726482;80;21433;-53
2020/12/06 02:46:41;;;;;;;12.17;3.93;;;;;;;-3.12;73.26;101243.15;1725437;80;21609;-52
2020/12/06 02:49:08;;;;;;;8.20;2.60;;;;;;;-3.14;73.26;101244.41;1722803;80;21184;-52
2020/12/06 02:51:36;;;;;;;7.63;3.27;;;;;;;-3.17;73.29;101240.81;1726017;80;21186;-52
2020/12/06 02:54:04;;;;;;;9.30;3.13;;;;;;;-3.19;73.30;101243.39;1719807;80;21215;-53
2020/12/06 02:56:31;;;;;;;14.50;3.23;;;;;;;-3.22;73.32;101244.60;1720709;80;22205;-54
2020/12/06 02:58:58;;;;;;;7.43;2.93;;;;;;;-3.23;73.35;101244.58;1721716;80;21279;-55
2020/12/06 03:01:30;;;;;;;8.43;3.07;;;;;;;-3.23;73.34;101240.63;1723034;80;21543;-53
2020/12/06 03:03:58;;;;;;;8.33;2.90;;;;;;;-3.25;73.23;101237.95;1726789;80;21112;-54
2020/12/06 03:06:26;;;;;;;7.67;2.40;;;;;;;-3.27;73.10;101245.31;1673144;83;21211;-54
2020/12/06 03:08:53;;;;;;;5.63;2.57;;;;;;;-3.31;73.14;101247.37;1726135;80;22305;-53
2020/12/06 03:11:27;;;;;;;6.53;2.53;;;;;;;-3.35;73.15;101249.03;1668194;84;21219;-53
2020/12/06 03:13:55;;;;;;;5.47;2.12;;;;;;;-3.39;73.10;101256.34;1723249;80;21136;-55
2020/12/06 03:16:24;;;;;;;8.70;2.57;;;;;;;-3.42;73.09;101253.64;1720177;80;21570;-52
2020/12/06 03:18:51;;;;;;;5.77;3.17;;;;;;;-3.45;73.08;101256.16;1724724;80;22353;-54
2020/12/06 03:21:18;;;;;;;9.97;3.23;;;;;;;-3.49;73.10;101251.66;1727362;80;21229;-53
2020/12/06 03:23:45;;;;;;;11.07;3.57;;;;;;;-3.51;73.13;101266.50;1720342;80;21212;-52
2020/12/06 03:26:12;;;;;;;7.37;2.37;;;;;;;-3.53;73.06;101263.81;1723497;80;22094;-53
2020/12/06 03:28:39;;;;;;;7.17;2.87;;;;;;;-3.55;73.06;101268.13;1668345;84;21225;-54
2020/12/06 03:31:07;;;;;;;9.03;2.93;;;;;;;-3.57;73.05;101267.59;1722561;80;21399;-52
2020/12/06 03:33:36;;;;;;;8.63;2.27;;;;;;;-3.59;73.00;101270.21;1719940;80;22285;-53
2020/12/06 03:36:03;;;;;;;9.03;2.67;;;;;;;-3.58;72.97;101276.38;1725192;80;21140;-51
2020/12/06 03:38:32;;;;;;;8.43;2.53;;;;;;;-3.62;72.98;101274.05;1688992;82;21615;-54
2020/12/06 03:40:59;;;;;;;6.43;2.47;;;;;;;-3.61;72.98;101285.47;1700137;81;21188;-52
2020/12/06 03:43:26;;;;;;;5.57;2.23;;;;;;;-3.61;72.87;101286.78;1722957;80;21212;-52
2020/12/06 03:45:55;;;;;;;8.23;2.37;;;;;;;-3.61;72.88;101289.00;1721109;80;22407;-53
2020/12/06 03:48:23;;;;;;;7.37;2.67;;;;;;;-3.64;72.84;101285.36;1665702;84;21288;-53
2020/12/06 03:50:50;;;;;;;7.57;1.27;;;;;;;-3.66;72.75;101289.70;1727099;80;21184;-54
2020/12/06 03:53:17;;;;;;;8.60;2.53;;;;;;;-3.69;72.68;101287.85;1720022;80;21715;-52
2020/12/06 03:55:45;;;;;;;8.47;3.50;;;;;;;-3.70;72.66;101291.32;1719526;80;21183;-52
2020/12/06 03:58:12;;;;;;;7.73;1.83;;;;;;;-3.72;72.71;101294.73;1720396;80;21282;-54
2020/12/06 04:00:39;;;;;;;7.77;2.37;;;;;;;-3.73;72.68;101291.63;1725095;80;21207;-54
2020/12/06 04:03:06;;;;;;;10.03;2.40;;;;;;;-3.73;72.61;101288.99;1724362;80;21237;-54
2020/12/06 04:05:33;;;;;;;4.63;1.60;;;;;;;-3.76;72.54;101287.59;1728197;80;21179;-55
2020/12/06 04:08:01;;;;;;;7.60;1.50;;;;;;;-3.79;72.47;101293.64;1725217;80;21207;-53
2020/12/06 04:10:28;;;;;;;6.43;1.43;;;;;;;-3.83;72.50;101286.05;1725081;80;21308;-52
2020/12/06 04:12:55;;;;;;;4.10;1.30;;;;;;;-3.87;72.40;101292.07;1730707;80;21570;-53
2020/12/06 04:15:22;;;;;;;9.57;1.57;;;;;;;-3.92;72.44;101289.72;1731010;80;21207;-52
2020/12/06 04:17:50;;;;;;;8.03;1.47;;;;;;;-3.95;72.51;101292.65;1733276;80;21243;-53
2020/12/06 04:20:17;;;;;;;4.63;1.50;;;;;;;-3.96;72.51;101297.02;1671245;84;21215;-54
2020/12/06 04:22:44;;;;;;;9.03;1.80;;;;;;;-3.96;72.34;101298.75;1671538;84;21407;-52
2020/12/06 04:25:12;;;;;;;9.30;1.63;;;;;;;-3.98;72.33;101297.79;1732544;80;21649;-54
2020/12/06 04:27:39;;;;;;;5.37;1.77;;;;;;;-4.01;72.31;101295.98;1732872;80;21211;-54
2020/12/06 04:30:06;;;;;;;5.33;1.70;;;;;;;-4.02;72.33;101300.76;1725107;80;21199;-55
2020/12/06 04:32:34;;;;;;;6.03;1.80;;;;;;;-4.03;72.23;101298.96;1671311;83;21686;-53
2020/12/06 04:35:01;;;;;;;5.77;1.20;;;;;;;-4.04;72.11;101294.96;1731839;80;22272;-52
2020/12/06 04:37:28;;;;;;;10.50;1.60;;;;;;;-4.08;72.15;101300.52;1730726;80;21211;-53
2020/12/06 04:39:55;;;;;;;5.93;1.60;;;;;;;-4.10;72.05;101303.54;1731068;80;21243;-54
2020/12/06 04:42:24;;;;;;;4.40;1.30;;;;;;;-4.16;72.05;101296.73;1733647;80;21187;-52
2020/12/06 04:44:51;;;;;;;4.87;1.77;;;;;;;-4.19;72.02;101299.27;1725272;80;21198;-52
2020/12/06 04:47:40;;;;;;;4.53;1.27;;;;;;;-4.23;71.95;101299.98;1728310;80;21386;-50
2020/12/06 04:50:07;;;;;;;3.30;1.40;;;;;;;-4.25;71.89;101292.45;1724602;80;21220;-54
2020/12/06 04:52:42;;;;;;;4.17;1.43;;;;;;;-4.30;71.89;101294.94;1731615;80;21179;-52
2020/12/06 04:55:13;;;;;;;3.23;1.30;;;;;;;-4.32;71.92;101303.59;1726634;80;21124;-53
2020/12/06 04:57:40;;;;;;;4.30;1.47;;;;;;;-4.37;71.85;101294.66;1701870;81;21207;-54
2020/12/06 05:00:09;;;;;;;3.50;1.37;;;;;;;-4.40;71.90;101303.73;1732885;80;21381;-51
2020/12/06 05:02:39;;;;;;;5.50;1.80;;;;;;;-4.41;71.86;101303.27;1728979;80;21878;-54
2020/12/06 05:05:06;;;;;;;3.30;1.27;;;;;;;-4.46;71.93;101301.80;1726807;80;21240;-52
2020/12/06 05:07:34;;;;;;;5.93;1.10;;;;;;;-4.47;71.98;101303.05;1729257;80;21128;-53
2020/12/06 05:10:02;;;;;;;2.73;1.40;;;;;;;-4.45;72.01;101306.64;1730290;80;21235;-51
2020/12/06 05:12:30;;;;;;;6.73;1.40;;;;;;;-4.46;71.93;101308.36;1727174;80;22047;-52
2020/12/06 05:14:57;;;;;;;4.90;1.20;;;;;;;-4.46;71.89;101304.84;1734428;80;21487;-53
2020/12/06 05:17:25;;;;;;;3.93;1.40;;;;;;;-4.49;71.79;101305.61;1727235;80;21187;-53
2020/12/06 05:19:52;;;;;;;9.67;1.60;;;;;;;-4.50;71.80;101315.64;1726008;80;21187;-52
2020/12/06 05:22:21;;;;;;;8.53;1.83;;;;;;;-4.50;71.80;101314.75;1729840;80;21198;-51
2020/12/06 05:24:48;;;;;;;2.73;1.07;;;;;;;-4.51;71.73;101313.89;1705638;80;21646;-53
2020/12/06 05:27:15;;;;;;;4.83;1.30;;;;;;;-4.53;71.77;101312.93;1733285;80;21242;-53
2020/12/06 05:29:42;;;;;;;4.43;1.50;;;;;;;-4.55;71.73;101306.71;1681701;81;21206;-53
2020/12/06 05:32:10;;;;;;;5.63;1.27;;;;;;;-4.54;71.74;101312.86;1726823;80;21556;-51
2020/12/06 05:34:40;;;;;;;4.47;1.50;;;;;;;-4.57;71.77;101309.28;1673425;83;21156;-54
2020/12/06 05:37:08;;;;;;;6.17;1.40;;;;;;;-4.57;71.78;101311.91;1729863;80;21788;-52
2020/12/06 05:39:35;;;;;;;3.97;1.10;;;;;;;-4.57;71.72;101304.44;1729656;80;21168;-53
2020/12/06 05:42:02;;;;;;;4.33;1.57;;;;;;;-4.54;71.59;101316.80;1730979;80;21180;-53
2020/12/06 05:44:29;;;;;;;3.33;1.20;;;;;;;-4.58;71.55;101313.16;1678987;80;21239;-51
2020/12/06 05:46:56;;;;;;;6.90;1.97;;;;;;;-4.59;71.47;101317.93;1729784;80;21814;-53
2020/12/06 05:49:24;;;;;;;3.93;1.20;;;;;;;-4.63;71.45;101318.67;1687526;80;21586;-53
2020/12/06 05:51:55;;;;;;;5.67;1.93;;;;;;;-4.65;71.45;101317.30;1733044;80;21152;-52
2020/12/06 05:54:23;;;;;;;8.27;1.40;;;;;;;-4.68;71.47;101318.93;1729327;80;22209;-51
2020/12/06 05:56:52;;;;;;;5.30;1.30;;;;;;;-4.71;71.49;101324.95;1729710;80;21227;-52
2020/12/06 05:59:23;;;;;;;3.93;1.50;;;;;;;-4.71;71.53;101322.33;1731381;80;22108;-52
2020/12/06 06:01:52;;;;;;;5.47;1.37;;;;;;;-4.69;71.50;101331.59;1729158;80;21204;-51
2020/12/06 06:04:21;;;;;;;4.97;1.40;;;;;;;-4.69;71.43;101331.17;1728128;80;21687;-54
2020/12/06 06:06:51;;;;;;;4.80;2.07;;;;;;;-4.72;71.42;101332.36;1723212;80;21538;-51
2020/12/06 06:09:19;;;;;;;8.20;1.80;;;;;;;-4.76;71.27;101341.36;1719133;81;21652;-52
2020/12/06 06:11:58;;;;;;;6.73;1.60;;;;;;;-4.79;71.44;101336.01;1726469;81;21141;-51
2020/12/06 06:14:25;;;;;;;4.23;1.30;;;;;;;-4.80;71.41;101339.05;1723073;80;22354;-51
2020/12/06 06:16:53;;;;;;;5.33;1.83;;;;;;;-4.80;71.48;101342.09;1725980;80;21248;-61
2020/12/06 06:19:20;;;;;;;6.43;1.40;;;;;;;-4.77;71.52;101340.50;1669017;84;21211;-52
2020/12/06 06:21:48;;;;;;;5.67;1.43;;;;;;;-4.74;71.45;101342.31;1722491;80;21670;-54
2020/12/06 06:24:24;;;;;;;4.40;1.33;;;;;;;-4.71;71.50;101351.64;1720571;80;21215;-54
2020/12/06 06:26:52;;;;;;;6.43;1.77;;;;;;;-4.71;71.48;101351.23;1725556;80;22570;-51
2020/12/06 06:29:20;;;;;;;5.90;1.63;;;;;;;-4.68;71.26;101350.46;1723446;80;21156;-51
2020/12/06 06:31:50;;;;;;;6.60;2.00;;;;;;;-4.69;71.25;101347.35;1720886;80;21922;-51
2020/12/06 06:34:17;;;;;;;4.37;1.50;;;;;;;-4.67;71.22;101353.12;1723283;80;21136;-52
2020/12/06 06:36:45;;;;;;;5.80;1.20;;;;;;;-4.62;71.23;101353.31;1723315;80;21235;-53
2020/12/06 06:39:18;;;;;;;2.17;0.90;;;;;;;-4.57;71.15;101356.99;1726960;80;21461;-53
2020/12/06 06:42:08;;;;;;;2.80;1.10;;;;;;;-4.56;71.22;101357.48;1719474;80;21159;-53
2020/12/06 06:44:43;;;;;;;4.53;1.10;;;;;;;-4.52;71.16;101360.71;1722424;80;22059;-54
2020/12/06 06:47:14;;;;;;;2.53;1.10;;;;;;;-4.46;71.11;101357.41;1680429;82;21753;-52
2020/12/06 06:49:52;;;;;;;2.40;1.00;;;;;;;-4.42;71.00;101349.67;1717906;80;21243;-54
2020/12/06 06:52:20;;;;;;;6.50;1.80;;;;;;;-4.35;70.89;101353.04;1722553;80;21374;-53
2020/12/06 06:54:50;;;;;;;9.40;1.57;;;;;;;-4.31;70.77;101350.08;1722505;80;21200;-54
2020/12/06 06:57:20;;;;;;;4.43;1.40;;;;;;;-4.27;70.65;101348.95;1725442;80;21186;-52
2020/12/06 06:59:54;;;;;;;4.43;1.37;;;;;;;-4.21;70.50;101345.22;1723116;80;21214;-55
2020/12/06 07:02:39;;;;;;;4.57;1.30;;;;;;;-4.15;70.42;101344.95;1721892;80;21204;-53
2020/12/06 07:05:14;;;;;;;3.95;1.55;;;;;;;-4.10;70.05;101344.30;1727262;81;23578;-52
2020/12/06 07:07:51;;;;;;;7.13;1.77;;;;;;;-4.03;70.10;101342.36;1869471;75;25638;-53
2020/12/06 07:10:22;;;;;;;4.33;1.60;;;;;;;-4.04;69.96;101346.25;1839025;76;21190;-54
2020/12/06 07:12:56;;;;;;;6.23;1.53;;;;;;;-4.00;70.01;101349.06;1841948;76;21682;-54
2020/12/06 07:15:26;;;;;;;4.70;1.25;;;;;;;-3.96;70.05;101345.67;1805913;78;21178;-53
2020/12/06 07:17:56;;;;;;;6.00;1.60;;;;;;;-3.90;69.74;101347.20;1785854;78;20981;-52
2020/12/06 07:20:25;;;;;;;5.37;1.33;;;;;;;-3.85;69.55;101351.33;1806552;78;20912;-53
2020/12/06 07:22:53;;;;;;;4.23;1.20;;;;;;;-3.81;69.18;101357.15;1761993;79;21187;-52
2020/12/06 07:25:21;;;;;;;3.33;1.40;;;;;;;-3.80;69.25;101356.31;1765265;79;21369;-54
2020/12/06 07:27:48;;;;;;;5.80;1.47;;;;;;;-3.77;69.27;101365.64;1784375;78;21006;-54
2020/12/06 07:30:18;;;;;;;7.13;1.90;;;;;;;-3.70;69.35;101364.11;1773191;78;21076;-54
2020/12/06 07:32:45;;;;;;;3.87;1.13;;;;;;;-3.66;68.81;101364.28;1773379;78;21633;-53
2020/12/06 07:35:15;;;;;;;7.23;1.53;;;;;;;-3.62;68.88;101354.73;1774714;78;21205;-54
2020/12/06 07:37:45;;;;;;;5.80;1.30;;;;;;;-3.58;68.65;101364.12;1759028;79;21846;-54
2020/12/06 07:40:12;;;;;;;6.10;1.47;;;;;;;-3.55;68.79;101369.47;1764454;79;21215;-54
2020/12/06 07:42:39;;;;;;;3.60;1.20;;;;;;;-3.49;68.85;101364.41;1758494;79;21183;-53
2020/12/06 07:45:07;;;;;;;3.67;1.27;;;;;;;-3.40;68.83;101362.50;1760652;79;21171;-53
2020/12/06 07:47:34;;;;;;;9.83;1.37;;;;;;;-3.32;68.62;101361.05;1757977;79;21178;-54
2020/12/06 07:50:03;;;;;;;5.27;1.43;;;;;;;-3.25;68.42;101360.40;1756935;79;21280;-53
2020/12/06 07:52:33;;;;;;;6.17;2.07;;;;;;;-3.16;68.15;101365.97;1759020;79;21167;-54
2020/12/06 07:55:04;;;;;;;5.70;1.93;;;;;;;-3.09;68.14;101362.69;1765655;79;21174;-55
2020/12/06 07:57:43;;;;;;;8.67;1.67;;;;;;;-3.03;68.08;101358.45;1754719;79;21176;-52
2020/12/06 08:00:21;;;;;;;3.20;1.60;;;;;;;-2.99;67.69;101364.30;1758844;79;21181;-53
2020/12/06 08:02:59;;;;;;;6.57;2.00;;;;;;;-2.95;67.39;101354.31;1759003;79;21383;-53
2020/12/06 08:05:29;;;;;;;5.03;1.73;;;;;;;-2.91;67.19;101360.16;1759537;79;21242;-52
2020/12/06 08:08:14;;;;;;;5.77;1.53;;;;;;;-2.86;66.94;101352.86;1776609;79;21155;-52
2020/12/06 08:10:42;;;;;;;6.00;1.13;;;;;;;-2.82;67.03;101361.77;1777227;78;22073;-53
2020/12/06 08:13:10;;;;;;;8.17;1.80;;;;;;;-2.77;66.54;101358.84;1780012;78;21226;-52
2020/12/06 08:15:38;;;;;;;6.80;1.17;;;;;;;-2.73;66.63;101371.28;1777699;79;21513;-53
2020/12/06 08:18:18;;;;;;;5.63;2.23;;;;;;;-2.70;66.66;101376.20;1775535;78;21234;-53
2020/12/06 08:21:43;;;;;;;5.47;1.67;;;;;;;-2.59;66.43;101366.42;1870809;75;26935;-53
2020/12/06 08:24:31;;;;;;;5.80;1.20;;;;;;;-2.58;66.39;101369.11;1778337;78;21145;-53
2020/12/06 08:26:59;;;;;;;7.73;1.53;;;;;;;-2.52;66.28;101370.59;1742910;79;22152;-53
2020/12/06 08:29:43;;;;;;;6.63;1.60;;;;;;;-2.44;65.72;101370.41;1762504;79;21080;-53
2020/12/06 08:32:11;;;;;;;9.15;1.65;;;;;;;-2.40;65.70;101356.47;1768662;79;20987;-55
2020/12/06 08:34:41;;;;;;;3.97;1.10;;;;;;;-2.34;65.60;101355.75;1797618;78;21167;-55
2020/12/06 08:37:16;;;;;;;4.77;1.80;;;;;;;-2.30;65.20;101354.55;1765514;78;21194;-54
2020/12/06 08:39:44;;;;;;;3.13;1.40;;;;;;;-2.26;64.94;101352.01;1800881;78;21326;-53
2020/12/06 08:42:19;;;;;;;7.17;1.67;;;;;;;-2.24;65.08;101351.63;1797364;78;21346;-54
2020/12/06 08:44:56;;;;;;;5.93;1.30;;;;;;;-2.16;65.12;101344.83;1789154;78;21221;-54
2020/12/06 08:47:26;;;;;;;6.90;2.27;;;;;;;-2.07;65.11;101349.05;1791678;78;21175;-55
2020/12/06 08:50:06;;;;;;;10.13;1.60;;;;;;;-2.01;64.51;101343.94;1801275;77;21539;-54
2020/12/06 08:52:34;;;;;;;5.73;2.07;;;;;;;-1.96;64.27;101335.28;1798355;78;22950;-55
2020/12/06 08:55:26;;;;;;;7.40;2.43;;;;;;;-1.90;64.33;101341.17;1797885;78;21193;-54
2020/12/06 08:57:54;;;;;;;7.23;1.83;;;;;;;-1.87;64.25;101343.02;1784678;78;21163;-55
2020/12/06 09:00:22;;;;;;;9.70;1.57;;;;;;;-1.81;63.86;101340.10;1796532;78;21107;-55
2020/12/06 09:02:50;;;;;;;7.60;1.70;;;;;;;-1.76;63.39;101344.17;1797271;78;21110;-56
2020/12/06 09:05:17;;;;;;;3.50;1.37;;;;;;;-1.75;62.99;101337.62;1805042;78;22040;-55
2020/12/06 09:07:48;;;;;;;5.70;1.70;;;;;;;-1.72;62.83;101344.31;1798727;78;21223;-54
2020/12/06 09:10:15;;;;;;;6.80;1.70;;;;;;;-1.72;62.68;101335.49;1792477;78;21222;-55
2020/12/06 09:12:42;;;;;;;4.90;1.37;;;;;;;-1.71;62.63;101330.69;1794256;78;21165;-55
2020/12/06 09:15:10;;;;;;;4.97;1.97;;;;;;;-1.68;62.46;101331.64;1795462;78;21169;-55
2020/12/06 09:17:38;;;;;;;9.10;1.63;;;;;;;-1.64;62.51;101332.63;1799667;78;21368;-56
2020/12/06 09:20:07;;;;;;;6.30;1.43;;;;;;;-1.61;62.42;101324.77;1798183;78;21214;-54
2020/12/06 09:22:34;;;;;;;3.17;1.40;;;;;;;-1.55;62.58;101324.52;1757779;80;21171;-55
2020/12/06 09:25:02;;;;;;;6.47;1.40;;;;;;;-1.48;62.16;101336.55;1796689;78;21182;-55
2020/12/06 09:27:30;;;;;;;9.63;1.80;;;;;;;-1.45;61.90;101327.39;1795042;78;21132;-54
2020/12/06 09:29:57;;;;;;;8.03;2.07;;;;;;;-1.44;61.32;101322.13;1793842;78;21521;-54
2020/12/06 09:32:24;;;;;;;6.30;1.50;;;;;;;-1.41;61.38;101322.64;1796327;78;21138;-53
2020/12/06 09:34:51;;;;;;;5.40;1.03;;;;;;;-1.38;61.40;101328.01;1798784;78;21164;-54
2020/12/06 09:37:19;;;;;;;5.47;1.63;;;;;;;-1.35;61.35;101321.03;1795248;78;21620;-54
2020/12/06 09:39:46;;;;;;;9.30;1.67;;;;;;;-1.32;61.40;101319.80;1792823;78;21181;-54
2020/12/06 09:42:14;;;;;;;9.10;1.80;;;;;;;-1.25;61.42;101324.80;1793234;78;21537;-54
2020/12/06 09:44:41;;;;;;;8.57;1.37;;;;;;;-1.20;61.10;101315.25;1739885;78;21226;-53
2020/12/06 09:47:09;;;;;;;6.67;1.40;;;;;;;-1.15;60.83;101315.81;1797578;78;21166;-53
2020/12/06 09:49:36;;;;;;;5.57;1.47;;;;;;;-1.10;60.54;101311.94;1767755;79;21186;-54
2020/12/06 09:52:03;;;;;;;3.67;1.37;;;;;;;-1.06;60.33;101317.78;1759491;80;21172;-53
2020/12/06 09:54:30;;;;;;;9.40;1.60;;;;;;;-1.02;60.12;101313.02;1791543;78;21369;-54
2020/12/06 09:56:58;;;;;;;3.43;1.40;;;;;;;-1.00;59.58;101311.30;1796518;78;22053;-54
2020/12/06 09:59:25;;;;;;;7.30;1.77;;;;;;;-1.02;59.49;101309.51;1760009;79;21215;-54
2020/12/06 10:01:52;;;;;;;3.70;1.10;;;;;;;-1.01;59.40;101311.27;1794370;78;21473;-55
2020/12/06 10:04:19;;;;;;;2.93;1.30;;;;;;;-1.00;58.84;101315.70;1793967;78;21127;-57
2020/12/06 10:06:46;;;;;;;3.90;1.20;;;;;;;-1.04;58.51;101305.50;1791351;78;21659;-54
2020/12/06 10:09:14;;;;;;;3.17;1.70;;;;;;;-1.10;58.78;101309.30;1798620;78;21240;-54
2020/12/06 10:11:41;;;;;;;6.23;1.47;;;;;;;-1.07;58.60;101300.56;1759255;80;21230;-54
2020/12/06 10:14:08;;;;;;;5.57;1.73;;;;;;;-1.06;58.51;101299.70;1801976;78;21178;-56
2020/12/06 10:16:36;;;;;;;4.90;1.50;;;;;;;-1.06;58.13;101292.67;1794123;78;21723;-54
2020/12/06 10:19:03;;;;;;;8.83;1.30;;;;;;;-1.07;58.10;101300.13;1798015;78;22689;-54
2020/12/06 10:21:30;;;;;;;6.17;1.50;;;;;;;-1.07;58.32;101301.45;1799659;78;21175;-54
2020/12/06 10:23:57;;;;;;;5.13;1.50;;;;;;;-1.03;58.13;101295.40;1797829;78;21561;-54
2020/12/06 10:26:24;;;;;;;7.83;1.87;;;;;;;-1.02;57.91;101294.97;1802956;78;21189;-55
2020/12/06 10:28:51;;;;;;;4.73;1.50;;;;;;;-1.00;57.84;101297.20;1804612;78;22232;-54
2020/12/06 10:31:19;;;;;;;5.00;1.23;;;;;;;-1.00;57.77;101295.45;1804801;78;23364;-53
2020/12/06 10:33:46;;;;;;;5.17;2.17;;;;;;;-0.98;57.87;101293.73;1807318;78;21569;-55
2020/12/06 10:36:13;;;;;;;8.07;2.90;;;;;;;-0.95;57.77;101287.64;1801465;78;21213;-56
2020/12/06 10:38:40;;;;;;;8.17;1.90;;;;;;;-0.95;57.69;101285.89;1796550;78;21150;-54
2020/12/06 10:41:07;;;;;;;11.53;2.63;;;;;;;-0.95;57.77;101279.28;1800128;78;21261;-54
2020/12/06 10:43:34;;;;;;;6.17;1.70;;;;;;;-0.95;57.50;101276.64;1807164;78;21355;-54
2020/12/06 10:46:02;;;;;;;3.80;1.23;;;;;;;-0.94;57.55;101272.25;1798999;77;21573;-54
2020/12/06 10:48:29;;;;;;;5.37;2.30;;;;;;;-0.93;57.41;101273.58;1800444;78;21180;-54
2020/12/06 10:50:56;;;;;;;10.07;1.33;;;;;;;-0.94;57.43;101267.86;1799790;78;21598;-55
2020/12/06 10:53:24;;;;;;;7.57;2.43;;;;;;;-0.91;57.34;101273.19;1804522;78;21150;-54
2020/12/06 10:55:52;;;;;;;6.73;1.70;;;;;;;-0.87;56.84;101275.48;1769790;79;22836;-55
2020/12/06 10:58:19;;;;;;;3.30;1.30;;;;;;;-0.88;56.87;101268.41;1739805;80;21234;-54
2020/12/06 11:00:46;;;;;;;5.27;1.50;;;;;;;-0.88;57.00;101266.66;1763822;79;21162;-55
2020/12/06 11:03:14;;;;;;;8.07;1.60;;;;;;;-0.86;56.97;101264.95;1755242;81;21181;-54
2020/12/06 11:05:42;;;;;;;9.90;2.23;;;;;;;-0.83;56.74;101258.39;1736918;80;22258;-54
2020/12/06 11:08:09;;;;;;;5.67;1.47;;;;;;;-0.82;56.58;101264.14;1736270;80;21538;-55
2020/12/06 11:10:36;;;;;;;13.20;3.10;;;;;;;-0.82;56.65;101260.60;1758647;80;21276;-55
2020/12/06 11:13:03;;;;;;;9.37;2.40;;;;;;;-0.82;56.80;101269.43;1761406;79;21698;-55
2020/12/06 11:15:30;;;;;;;6.03;2.53;;;;;;;-0.81;56.79;101262.39;1759294;79;21176;-54
2020/12/06 11:18:00;;;;;;;6.77;1.90;;;;;;;-0.78;57.10;101263.79;1754523;79;21183;-55
2020/12/06 11:20:27;;;;;;;5.80;1.50;;;;;;;-0.77;56.84;101251.89;1757137;79;21769;-55
2020/12/06 11:22:54;;;;;;;10.53;1.53;;;;;;;-0.77;56.83;101253.68;1764037;79;21218;-55
2020/12/06 11:25:22;;;;;;;4.90;1.60;;;;;;;-0.79;56.89;101258.03;1760876;79;21754;-55
2020/12/06 11:27:49;;;;;;;7.77;2.17;;;;;;;-0.79;57.12;101249.67;1789939;78;21190;-54
2020/12/06 11:30:16;;;;;;;4.93;1.77;;;;;;;-0.76;57.30;101251.04;1792863;78;21636;-54
2020/12/06 11:32:45;;;;;;;6.77;2.33;;;;;;;-0.73;57.21;101248.01;1798692;78;21790;-55